Pagrindinis puslapis
METAR-TAF:

METAR-TAF

Oro uostai :

Ainas, Jungtiniai Arabų Emyratai

platuma: 24-16N, ilguma: 055-36E, Aukštis: 265 m

Dabartinis oras

Ataskaita buvo paskelbta 44 minutes, ne 12:00 UTC
Vėjas 10 kt iš Šiaurės, svyruoja nuo Vakarų ir Šiaurės/Šiaurės Rytų
Temperatūra 25°C
Drėgmė 41%
Slėgis 1013 hPa
Matomumas: 8000 m

METAR: OMAL 281200Z 35010KT 280V030 8000 NSC 25/11 Q1013 NOSIG

Laikas: 16:44 (12:44 UTC)

Prognozė

Ataskaita buvo paskelbta 1 valandą ir 44 minutes, ne 11:00 UTC
Prognozė galioja nuo 28 metu 12 UTC su 29 metu 18 UTC
Vėjas 10 kt iš Šiaurės/Šiaurės Vakarų
Matomumas: 7000 m
Tapsmas
nuo 28 metu 20 UTC su 28 metu 22 UTC
Vėjas 2 kt nuo kintamojo kryptimis
Matomumas: 3000 m
rūkana
Tikimybė 40% :
Laikinai
nuo 28 metu 22 UTC su 29 metu 04 UTC
Matomumas: 0200 m
rūkas
Tapsmas
nuo 29 metu 05 UTC su 29 metu 07 UTC
Vėjas 8 kt iš Vakarų/Šiaurės Vakarų
Matomumas: 8000 m

TAF: OMAL 281100Z 2812/2918 33010KT 7000 NSC BECMG 2820/2822 VRB02KT 3000 BR PROB40 TEMPO 2822/2904 0200 FG VV/// BECMG 2905/2907 30008KT 8000 NSW

Orai ataskaitas ir orų prognozės (METAR, TAF).

turimą stotys yra geltonos ir raudonos taškus žemėlapyje.

Perkelti pele per norėdami pamatyti stoties vardą.

Tada spustelėkite, norėdami matyti oro stebėjimo ir prognozės.

Norėdami pakeisti žemėlapį: spustelėkite ant žalios mygtukų su juodo kryžiaus žemyn,; žalią mygtuką su brūkšneliu, jei norite nutolinti; arba žalių rodyklių gretimoms žemėlapius.


METAR-TAF: